sensor_id;sensor_type;location;lat;lon;timestamp;P1;durP1;ratioP1;P2;durP2;ratioP2
37087;SDS011;23002;52.676;6.432;2024-01-06T00:01:16;16.13;;;7.00;;
37087;SDS011;23002;52.676;6.432;2024-01-06T00:03:43;16.00;;;7.65;;
37087;SDS011;23002;52.676;6.432;2024-01-06T00:06:13;16.17;;;6.75;;
37087;SDS011;23002;52.676;6.432;2024-01-06T00:08:44;15.10;;;6.80;;
37087;SDS011;23002;52.676;6.432;2024-01-06T00:11:14;15.50;;;7.85;;
37087;SDS011;23002;52.676;6.432;2024-01-06T00:13:43;12.18;;;5.35;;
37087;SDS011;23002;52.676;6.432;2024-01-06T00:16:11;14.85;;;7.10;;
37087;SDS011;23002;52.676;6.432;2024-01-06T00:18:40;15.82;;;6.82;;
37087;SDS011;23002;52.676;6.432;2024-01-06T00:21:09;15.48;;;7.07;;
37087;SDS011;23002;52.676;6.432;2024-01-06T00:23:39;14.70;;;6.43;;
37087;SDS011;23002;52.676;6.432;2024-01-06T00:26:09;17.90;;;7.50;;
37087;SDS011;23002;52.676;6.432;2024-01-06T00:28:39;17.98;;;8.27;;
37087;SDS011;23002;52.676;6.432;2024-01-06T00:31:06;14.70;;;7.40;;
37087;SDS011;23002;52.676;6.432;2024-01-06T00:33:33;15.13;;;7.47;;
37087;SDS011;23002;52.676;6.432;2024-01-06T00:36:00;15.23;;;6.70;;
37087;SDS011;23002;52.676;6.432;2024-01-06T00:38:29;16.35;;;8.02;;
37087;SDS011;23002;52.676;6.432;2024-01-06T00:40:58;16.77;;;7.82;;
37087;SDS011;23002;52.676;6.432;2024-01-06T00:43:24;15.85;;;7.40;;
37087;SDS011;23002;52.676;6.432;2024-01-06T00:45:51;17.00;;;7.63;;
37087;SDS011;23002;52.676;6.432;2024-01-06T00:48:18;13.40;;;6.95;;
37087;SDS011;23002;52.676;6.432;2024-01-06T00:50:46;16.95;;;7.38;;
37087;SDS011;23002;52.676;6.432;2024-01-06T00:53:13;15.63;;;7.70;;
37087;SDS011;23002;52.676;6.432;2024-01-06T00:55:41;17.88;;;7.65;;
37087;SDS011;23002;52.676;6.432;2024-01-06T00:58:11;15.60;;;7.70;;
37087;SDS011;23002;52.676;6.432;2024-01-06T01:00:40;19.90;;;7.93;;
37087;SDS011;23002;52.676;6.432;2024-01-06T01:03:09;17.52;;;8.77;;
37087;SDS011;23002;52.676;6.432;2024-01-06T01:05:37;18.42;;;8.05;;
37087;SDS011;23002;52.676;6.432;2024-01-06T01:08:07;17.98;;;9.35;;
37087;SDS011;23002;52.676;6.432;2024-01-06T01:10:33;17.50;;;8.52;;
37087;SDS011;23002;52.676;6.432;2024-01-06T01:13:01;17.42;;;8.65;;
37087;SDS011;23002;52.676;6.432;2024-01-06T01:15:31;18.13;;;8.30;;
37087;SDS011;23002;52.676;6.432;2024-01-06T01:17:58;20.20;;;9.52;;
37087;SDS011;23002;52.676;6.432;2024-01-06T01:20:26;19.88;;;9.05;;
37087;SDS011;23002;52.676;6.432;2024-01-06T01:22:55;17.70;;;8.90;;
37087;SDS011;23002;52.676;6.432;2024-01-06T01:25:22;19.27;;;8.93;;
37087;SDS011;23002;52.676;6.432;2024-01-06T01:27:49;21.80;;;9.88;;
37087;SDS011;23002;52.676;6.432;2024-01-06T01:30:16;21.25;;;10.32;;
37087;SDS011;23002;52.676;6.432;2024-01-06T01:32:43;25.95;;;11.20;;
37087;SDS011;23002;52.676;6.432;2024-01-06T01:35:10;23.98;;;10.95;;
37087;SDS011;23002;52.676;6.432;2024-01-06T01:37:38;26.10;;;11.77;;
37087;SDS011;23002;52.676;6.432;2024-01-06T01:40:06;24.75;;;10.95;;
37087;SDS011;23002;52.676;6.432;2024-01-06T01:42:33;30.70;;;11.57;;
37087;SDS011;23002;52.676;6.432;2024-01-06T01:45:01;24.42;;;10.93;;
37087;SDS011;23002;52.676;6.432;2024-01-06T01:47:29;27.55;;;12.30;;
37087;SDS011;23002;52.676;6.432;2024-01-06T01:49:58;27.98;;;11.80;;
37087;SDS011;23002;52.676;6.432;2024-01-06T01:52:25;30.08;;;13.07;;
37087;SDS011;23002;52.676;6.432;2024-01-06T01:54:54;23.40;;;10.95;;
37087;SDS011;23002;52.676;6.432;2024-01-06T01:57:23;29.15;;;11.75;;
37087;SDS011;23002;52.676;6.432;2024-01-06T01:59:52;22.33;;;9.93;;
37087;SDS011;23002;52.676;6.432;2024-01-06T02:02:20;28.35;;;10.50;;
37087;SDS011;23002;52.676;6.432;2024-01-06T02:04:48;25.75;;;11.48;;
37087;SDS011;23002;52.676;6.432;2024-01-06T02:07:15;25.35;;;11.48;;
37087;SDS011;23002;52.676;6.432;2024-01-06T02:09:43;27.17;;;11.60;;
37087;SDS011;23002;52.676;6.432;2024-01-06T02:12:10;26.75;;;10.38;;
37087;SDS011;23002;52.676;6.432;2024-01-06T02:14:36;23.67;;;11.32;;
37087;SDS011;23002;52.676;6.432;2024-01-06T02:17:03;26.90;;;11.80;;
37087;SDS011;23002;52.676;6.432;2024-01-06T02:19:30;26.48;;;11.43;;
37087;SDS011;23002;52.676;6.432;2024-01-06T02:21:57;23.45;;;10.90;;
37087;SDS011;23002;52.676;6.432;2024-01-06T02:24:24;22.40;;;10.70;;
37087;SDS011;23002;52.676;6.432;2024-01-06T02:26:51;25.30;;;9.95;;
37087;SDS011;23002;52.676;6.432;2024-01-06T02:29:18;22.98;;;10.35;;
37087;SDS011;23002;52.676;6.432;2024-01-06T02:31:45;26.63;;;10.60;;
37087;SDS011;23002;52.676;6.432;2024-01-06T02:34:12;29.17;;;11.35;;
37087;SDS011;23002;52.676;6.432;2024-01-06T02:36:39;25.67;;;11.07;;
37087;SDS011;23002;52.676;6.432;2024-01-06T02:39:06;23.73;;;10.85;;
37087;SDS011;23002;52.676;6.432;2024-01-06T02:41:32;28.88;;;11.43;;
37087;SDS011;23002;52.676;6.432;2024-01-06T02:44:00;31.63;;;12.20;;
37087;SDS011;23002;52.676;6.432;2024-01-06T02:46:29;25.67;;;10.98;;
37087;SDS011;23002;52.676;6.432;2024-01-06T02:48:55;28.10;;;10.88;;
37087;SDS011;23002;52.676;6.432;2024-01-06T02:51:22;28.05;;;12.15;;
37087;SDS011;23002;52.676;6.432;2024-01-06T02:53:49;25.95;;;10.73;;
37087;SDS011;23002;52.676;6.432;2024-01-06T02:56:16;22.27;;;10.38;;
37087;SDS011;23002;52.676;6.432;2024-01-06T02:58:43;28.38;;;11.38;;
37087;SDS011;23002;52.676;6.432;2024-01-06T03:01:11;24.27;;;10.82;;
37087;SDS011;23002;52.676;6.432;2024-01-06T03:03:38;28.15;;;11.20;;
37087;SDS011;23002;52.676;6.432;2024-01-06T03:06:06;20.60;;;9.90;;
37087;SDS011;23002;52.676;6.432;2024-01-06T03:08:34;24.58;;;10.15;;
37087;SDS011;23002;52.676;6.432;2024-01-06T03:11:02;22.80;;;9.55;;
37087;SDS011;23002;52.676;6.432;2024-01-06T03:13:32;25.52;;;10.38;;
37087;SDS011;23002;52.676;6.432;2024-01-06T03:16:03;22.15;;;9.52;;
37087;SDS011;23002;52.676;6.432;2024-01-06T03:18:31;20.10;;;10.07;;
37087;SDS011;23002;52.676;6.432;2024-01-06T03:21:00;23.58;;;9.35;;
37087;SDS011;23002;52.676;6.432;2024-01-06T03:23:30;17.25;;;8.85;;
37087;SDS011;23002;52.676;6.432;2024-01-06T03:25:58;20.13;;;8.85;;
37087;SDS011;23002;52.676;6.432;2024-01-06T03:28:27;23.42;;;8.52;;
37087;SDS011;23002;52.676;6.432;2024-01-06T03:30:56;22.73;;;8.73;;
37087;SDS011;23002;52.676;6.432;2024-01-06T03:33:25;20.75;;;9.88;;
37087;SDS011;23002;52.676;6.432;2024-01-06T03:35:54;19.25;;;9.15;;
37087;SDS011;23002;52.676;6.432;2024-01-06T03:38:23;21.10;;;9.13;;
37087;SDS011;23002;52.676;6.432;2024-01-06T03:40:52;22.33;;;9.13;;
37087;SDS011;23002;52.676;6.432;2024-01-06T03:43:22;23.48;;;8.80;;
37087;SDS011;23002;52.676;6.432;2024-01-06T03:45:51;18.63;;;8.63;;
37087;SDS011;23002;52.676;6.432;2024-01-06T03:48:22;19.08;;;8.70;;
37087;SDS011;23002;52.676;6.432;2024-01-06T03:50:51;19.05;;;7.70;;
37087;SDS011;23002;52.676;6.432;2024-01-06T03:53:20;20.17;;;9.45;;
37087;SDS011;23002;52.676;6.432;2024-01-06T03:55:52;21.08;;;8.65;;
37087;SDS011;23002;52.676;6.432;2024-01-06T03:58:21;22.98;;;9.38;;
37087;SDS011;23002;52.676;6.432;2024-01-06T04:00:50;20.52;;;8.57;;
37087;SDS011;23002;52.676;6.432;2024-01-06T04:03:17;21.95;;;9.13;;
37087;SDS011;23002;52.676;6.432;2024-01-06T04:05:44;25.42;;;9.00;;
37087;SDS011;23002;52.676;6.432;2024-01-06T04:08:14;25.52;;;9.23;;
37087;SDS011;23002;52.676;6.432;2024-01-06T04:10:42;19.45;;;9.45;;
37087;SDS011;23002;52.676;6.432;2024-01-06T04:13:11;21.23;;;9.15;;
37087;SDS011;23002;52.676;6.432;2024-01-06T04:15:40;22.13;;;9.55;;
37087;SDS011;23002;52.676;6.432;2024-01-06T04:18:07;22.80;;;9.93;;
37087;SDS011;23002;52.676;6.432;2024-01-06T04:20:36;24.20;;;11.43;;
37087;SDS011;23002;52.676;6.432;2024-01-06T04:23:03;26.30;;;10.32;;
37087;SDS011;23002;52.676;6.432;2024-01-06T04:25:30;23.50;;;10.82;;
37087;SDS011;23002;52.676;6.432;2024-01-06T04:27:57;29.38;;;10.32;;
37087;SDS011;23002;52.676;6.432;2024-01-06T04:30:24;28.25;;;10.00;;
37087;SDS011;23002;52.676;6.432;2024-01-06T04:32:52;22.90;;;9.88;;
37087;SDS011;23002;52.676;6.432;2024-01-06T04:35:19;25.17;;;11.13;;
37087;SDS011;23002;52.676;6.432;2024-01-06T04:37:49;23.70;;;9.88;;
37087;SDS011;23002;52.676;6.432;2024-01-06T04:40:17;25.77;;;10.77;;
37087;SDS011;23002;52.676;6.432;2024-01-06T04:42:45;25.40;;;11.02;;
37087;SDS011;23002;52.676;6.432;2024-01-06T04:45:14;25.95;;;11.23;;
37087;SDS011;23002;52.676;6.432;2024-01-06T04:47:45;26.67;;;10.68;;
37087;SDS011;23002;52.676;6.432;2024-01-06T04:50:14;22.88;;;11.27;;
37087;SDS011;23002;52.676;6.432;2024-01-06T04:52:43;24.75;;;10.32;;
37087;SDS011;23002;52.676;6.432;2024-01-06T04:55:10;22.55;;;9.88;;
37087;SDS011;23002;52.676;6.432;2024-01-06T04:57:38;28.67;;;10.82;;
37087;SDS011;23002;52.676;6.432;2024-01-06T05:00:06;27.48;;;10.48;;
37087;SDS011;23002;52.676;6.432;2024-01-06T05:02:33;24.52;;;10.95;;
37087;SDS011;23002;52.676;6.432;2024-01-06T05:05:00;20.23;;;9.70;;
37087;SDS011;23002;52.676;6.432;2024-01-06T05:07:27;27.02;;;10.57;;
37087;SDS011;23002;52.676;6.432;2024-01-06T05:09:54;24.77;;;10.35;;
37087;SDS011;23002;52.676;6.432;2024-01-06T05:12:22;24.58;;;10.98;;
37087;SDS011;23002;52.676;6.432;2024-01-06T05:14:50;22.08;;;10.25;;
37087;SDS011;23002;52.676;6.432;2024-01-06T05:17:17;26.92;;;10.25;;
37087;SDS011;23002;52.676;6.432;2024-01-06T05:19:45;24.67;;;10.80;;
37087;SDS011;23002;52.676;6.432;2024-01-06T05:22:13;26.80;;;10.20;;
37087;SDS011;23002;52.676;6.432;2024-01-06T05:24:40;22.50;;;9.77;;
37087;SDS011;23002;52.676;6.432;2024-01-06T05:27:07;24.60;;;9.82;;
37087;SDS011;23002;52.676;6.432;2024-01-06T05:29:37;20.70;;;9.20;;
37087;SDS011;23002;52.676;6.432;2024-01-06T05:32:04;25.38;;;9.60;;
37087;SDS011;23002;52.676;6.432;2024-01-06T05:34:31;21.30;;;9.07;;
37087;SDS011;23002;52.676;6.432;2024-01-06T05:36:58;20.10;;;8.82;;
37087;SDS011;23002;52.676;6.432;2024-01-06T05:39:25;18.10;;;8.73;;
37087;SDS011;23002;52.676;6.432;2024-01-06T05:41:52;19.23;;;8.93;;
37087;SDS011;23002;52.676;6.432;2024-01-06T05:44:19;23.17;;;9.50;;
37087;SDS011;23002;52.676;6.432;2024-01-06T05:46:46;22.13;;;8.95;;
37087;SDS011;23002;52.676;6.432;2024-01-06T05:49:12;20.35;;;8.98;;
37087;SDS011;23002;52.676;6.432;2024-01-06T05:51:43;21.38;;;9.73;;
37087;SDS011;23002;52.676;6.432;2024-01-06T05:54:11;24.48;;;10.07;;
37087;SDS011;23002;52.676;6.432;2024-01-06T05:56:39;21.65;;;9.07;;
37087;SDS011;23002;52.676;6.432;2024-01-06T05:59:08;22.77;;;10.10;;
37087;SDS011;23002;52.676;6.432;2024-01-06T06:01:37;18.77;;;8.75;;
37087;SDS011;23002;52.676;6.432;2024-01-06T06:04:04;24.48;;;8.70;;
37087;SDS011;23002;52.676;6.432;2024-01-06T06:06:31;17.90;;;8.48;;
37087;SDS011;23002;52.676;6.432;2024-01-06T06:08:59;19.25;;;9.23;;
37087;SDS011;23002;52.676;6.432;2024-01-06T06:11:26;21.02;;;8.52;;
37087;SDS011;23002;52.676;6.432;2024-01-06T06:13:53;18.95;;;7.90;;
37087;SDS011;23002;52.676;6.432;2024-01-06T06:16:20;16.02;;;7.80;;
37087;SDS011;23002;52.676;6.432;2024-01-06T06:18:46;24.67;;;8.63;;
37087;SDS011;23002;52.676;6.432;2024-01-06T06:21:13;20.02;;;7.55;;
37087;SDS011;23002;52.676;6.432;2024-01-06T06:23:40;18.33;;;8.10;;
37087;SDS011;23002;52.676;6.432;2024-01-06T06:26:07;20.42;;;8.88;;
37087;SDS011;23002;52.676;6.432;2024-01-06T06:28:35;19.35;;;8.02;;
37087;SDS011;23002;52.676;6.432;2024-01-06T06:31:05;17.98;;;7.53;;
37087;SDS011;23002;52.676;6.432;2024-01-06T06:33:33;21.13;;;8.88;;
37087;SDS011;23002;52.676;6.432;2024-01-06T06:36:00;19.42;;;8.57;;
37087;SDS011;23002;52.676;6.432;2024-01-06T06:38:30;21.55;;;8.50;;
37087;SDS011;23002;52.676;6.432;2024-01-06T06:40:57;22.48;;;9.32;;
37087;SDS011;23002;52.676;6.432;2024-01-06T06:43:25;14.55;;;7.45;;
37087;SDS011;23002;52.676;6.432;2024-01-06T06:45:54;17.63;;;8.13;;
37087;SDS011;23002;52.676;6.432;2024-01-06T06:48:22;16.27;;;7.88;;
37087;SDS011;23002;52.676;6.432;2024-01-06T06:50:52;22.55;;;8.65;;
37087;SDS011;23002;52.676;6.432;2024-01-06T06:53:21;26.38;;;9.90;;
37087;SDS011;23002;52.676;6.432;2024-01-06T06:55:48;38.55;;;9.98;;
37087;SDS011;23002;52.676;6.432;2024-01-06T06:58:14;22.02;;;9.43;;
37087;SDS011;23002;52.676;6.432;2024-01-06T07:00:41;19.17;;;9.18;;
37087;SDS011;23002;52.676;6.432;2024-01-06T07:03:09;21.70;;;10.20;;
37087;SDS011;23002;52.676;6.432;2024-01-06T07:05:36;26.05;;;10.43;;
37087;SDS011;23002;52.676;6.432;2024-01-06T07:08:03;21.10;;;9.32;;
37087;SDS011;23002;52.676;6.432;2024-01-06T07:10:30;22.15;;;8.38;;
37087;SDS011;23002;52.676;6.432;2024-01-06T07:12:57;17.92;;;8.30;;
37087;SDS011;23002;52.676;6.432;2024-01-06T07:15:24;19.15;;;9.27;;
37087;SDS011;23002;52.676;6.432;2024-01-06T07:17:50;20.55;;;9.55;;
37087;SDS011;23002;52.676;6.432;2024-01-06T07:20:19;23.15;;;8.82;;
37087;SDS011;23002;52.676;6.432;2024-01-06T07:22:46;18.95;;;8.15;;
37087;SDS011;23002;52.676;6.432;2024-01-06T07:25:13;24.48;;;8.98;;
37087;SDS011;23002;52.676;6.432;2024-01-06T07:27:40;23.88;;;9.80;;
37087;SDS011;23002;52.676;6.432;2024-01-06T07:30:07;21.30;;;8.35;;
37087;SDS011;23002;52.676;6.432;2024-01-06T07:32:35;23.92;;;9.35;;
37087;SDS011;23002;52.676;6.432;2024-01-06T07:35:03;21.80;;;8.52;;
37087;SDS011;23002;52.676;6.432;2024-01-06T07:37:33;26.13;;;9.07;;
37087;SDS011;23002;52.676;6.432;2024-01-06T07:40:00;21.85;;;9.40;;
37087;SDS011;23002;52.676;6.432;2024-01-06T07:42:28;18.15;;;8.00;;
37087;SDS011;23002;52.676;6.432;2024-01-06T07:44:55;21.58;;;8.60;;
37087;SDS011;23002;52.676;6.432;2024-01-06T07:47:21;19.42;;;8.50;;
37087;SDS011;23002;52.676;6.432;2024-01-06T07:49:48;19.27;;;8.18;;
37087;SDS011;23002;52.676;6.432;2024-01-06T07:52:15;22.52;;;8.93;;
37087;SDS011;23002;52.676;6.432;2024-01-06T07:54:43;20.95;;;10.20;;
37087;SDS011;23002;52.676;6.432;2024-01-06T07:57:10;17.63;;;9.45;;
37087;SDS011;23002;52.676;6.432;2024-01-06T07:59:38;21.65;;;10.80;;
37087;SDS011;23002;52.676;6.432;2024-01-06T08:02:05;20.73;;;9.07;;
37087;SDS011;23002;52.676;6.432;2024-01-06T08:04:32;26.35;;;9.13;;
37087;SDS011;23002;52.676;6.432;2024-01-06T08:06:59;22.60;;;10.45;;
37087;SDS011;23002;52.676;6.432;2024-01-06T08:09:26;21.85;;;9.52;;
37087;SDS011;23002;52.676;6.432;2024-01-06T08:11:53;21.33;;;9.90;;
37087;SDS011;23002;52.676;6.432;2024-01-06T08:14:19;21.83;;;10.00;;
37087;SDS011;23002;52.676;6.432;2024-01-06T08:16:46;21.77;;;8.85;;
37087;SDS011;23002;52.676;6.432;2024-01-06T08:19:13;24.25;;;10.55;;
37087;SDS011;23002;52.676;6.432;2024-01-06T08:21:40;23.15;;;10.82;;
37087;SDS011;23002;52.676;6.432;2024-01-06T08:24:07;20.95;;;9.55;;
37087;SDS011;23002;52.676;6.432;2024-01-06T08:26:34;19.13;;;8.43;;
37087;SDS011;23002;52.676;6.432;2024-01-06T08:29:01;22.30;;;10.07;;
37087;SDS011;23002;52.676;6.432;2024-01-06T08:31:27;22.90;;;10.38;;
37087;SDS011;23002;52.676;6.432;2024-01-06T08:33:54;21.13;;;9.32;;
37087;SDS011;23002;52.676;6.432;2024-01-06T08:36:21;19.45;;;8.93;;
37087;SDS011;23002;52.676;6.432;2024-01-06T08:38:48;22.88;;;9.68;;
37087;SDS011;23002;52.676;6.432;2024-01-06T08:41:15;17.58;;;8.25;;
37087;SDS011;23002;52.676;6.432;2024-01-06T08:43:42;21.73;;;9.05;;
37087;SDS011;23002;52.676;6.432;2024-01-06T08:46:08;19.17;;;8.00;;
37087;SDS011;23002;52.676;6.432;2024-01-06T08:48:35;20.08;;;9.77;;
37087;SDS011;23002;52.676;6.432;2024-01-06T08:51:02;19.60;;;9.77;;
37087;SDS011;23002;52.676;6.432;2024-01-06T08:53:29;16.63;;;8.68;;
37087;SDS011;23002;52.676;6.432;2024-01-06T08:55:56;15.43;;;7.53;;
37087;SDS011;23002;52.676;6.432;2024-01-06T08:58:23;16.88;;;8.85;;
37087;SDS011;23002;52.676;6.432;2024-01-06T09:00:50;18.70;;;9.45;;
37087;SDS011;23002;52.676;6.432;2024-01-06T09:03:19;14.10;;;7.03;;
37087;SDS011;23002;52.676;6.432;2024-01-06T09:05:53;16.95;;;8.05;;
37087;SDS011;23002;52.676;6.432;2024-01-06T09:08:21;14.55;;;7.47;;
37087;SDS011;23002;52.676;6.432;2024-01-06T09:10:50;18.70;;;8.55;;
37087;SDS011;23002;52.676;6.432;2024-01-06T09:13:23;15.23;;;7.88;;
37087;SDS011;23002;52.676;6.432;2024-01-06T09:15:50;16.92;;;8.05;;
37087;SDS011;23002;52.676;6.432;2024-01-06T09:18:18;16.15;;;8.45;;
37087;SDS011;23002;52.676;6.432;2024-01-06T09:20:45;19.02;;;8.75;;
37087;SDS011;23002;52.676;6.432;2024-01-06T09:23:15;16.83;;;8.40;;
37087;SDS011;23002;52.676;6.432;2024-01-06T09:25:42;17.63;;;8.50;;
37087;SDS011;23002;52.676;6.432;2024-01-06T09:28:09;18.95;;;8.20;;
37087;SDS011;23002;52.676;6.432;2024-01-06T09:30:37;19.83;;;9.48;;
37087;SDS011;23002;52.676;6.432;2024-01-06T09:33:04;18.38;;;9.68;;
37087;SDS011;23002;52.676;6.432;2024-01-06T09:35:31;20.38;;;9.98;;
37087;SDS011;23002;52.676;6.432;2024-01-06T09:37:58;17.45;;;9.55;;
37087;SDS011;23002;52.676;6.432;2024-01-06T09:40:25;17.10;;;8.48;;
37087;SDS011;23002;52.676;6.432;2024-01-06T09:42:52;17.25;;;8.68;;
37087;SDS011;23002;52.676;6.432;2024-01-06T09:45:20;16.58;;;8.38;;
37087;SDS011;23002;52.676;6.432;2024-01-06T09:47:48;16.80;;;8.07;;
37087;SDS011;23002;52.676;6.432;2024-01-06T09:50:20;18.35;;;9.70;;
37087;SDS011;23002;52.676;6.432;2024-01-06T09:52:48;17.77;;;9.93;;
37087;SDS011;23002;52.676;6.432;2024-01-06T09:55:23;16.02;;;9.20;;
37087;SDS011;23002;52.676;6.432;2024-01-06T09:57:53;18.38;;;9.80;;
37087;SDS011;23002;52.676;6.432;2024-01-06T10:00:20;16.20;;;8.10;;
37087;SDS011;23002;52.676;6.432;2024-01-06T10:02:48;17.75;;;8.85;;
37087;SDS011;23002;52.676;6.432;2024-01-06T10:05:16;18.02;;;8.27;;
37087;SDS011;23002;52.676;6.432;2024-01-06T10:07:45;17.58;;;8.80;;
37087;SDS011;23002;52.676;6.432;2024-01-06T10:10:13;17.95;;;7.80;;
37087;SDS011;23002;52.676;6.432;2024-01-06T10:12:41;14.38;;;8.10;;
37087;SDS011;23002;52.676;6.432;2024-01-06T10:15:10;16.55;;;8.50;;
37087;SDS011;23002;52.676;6.432;2024-01-06T10:17:41;15.07;;;8.20;;
37087;SDS011;23002;52.676;6.432;2024-01-06T10:20:09;14.30;;;8.55;;
37087;SDS011;23002;52.676;6.432;2024-01-06T10:22:37;14.77;;;8.05;;
37087;SDS011;23002;52.676;6.432;2024-01-06T10:25:07;16.15;;;7.78;;
37087;SDS011;23002;52.676;6.432;2024-01-06T10:27:38;13.50;;;6.78;;
37087;SDS011;23002;52.676;6.432;2024-01-06T10:30:06;13.02;;;7.32;;
37087;SDS011;23002;52.676;6.432;2024-01-06T10:32:34;13.65;;;7.25;;
37087;SDS011;23002;52.676;6.432;2024-01-06T10:35:03;11.05;;;6.13;;
37087;SDS011;23002;52.676;6.432;2024-01-06T10:37:32;12.93;;;6.13;;
37087;SDS011;23002;52.676;6.432;2024-01-06T10:40:06;10.90;;;6.35;;
37087;SDS011;23002;52.676;6.432;2024-01-06T10:42:36;12.20;;;6.43;;
37087;SDS011;23002;52.676;6.432;2024-01-06T10:45:10;12.40;;;6.40;;
37087;SDS011;23002;52.676;6.432;2024-01-06T10:47:40;11.23;;;6.53;;
37087;SDS011;23002;52.676;6.432;2024-01-06T10:50:12;10.98;;;5.70;;
37087;SDS011;23002;52.676;6.432;2024-01-06T10:52:40;9.73;;;5.50;;
37087;SDS011;23002;52.676;6.432;2024-01-06T10:55:09;9.65;;;5.28;;
37087;SDS011;23002;52.676;6.432;2024-01-06T10:57:37;9.43;;;4.97;;
37087;SDS011;23002;52.676;6.432;2024-01-06T11:00:04;9.52;;;5.30;;
37087;SDS011;23002;52.676;6.432;2024-01-06T11:02:32;10.07;;;5.78;;
37087;SDS011;23002;52.676;6.432;2024-01-06T11:05:00;11.73;;;6.32;;
37087;SDS011;23002;52.676;6.432;2024-01-06T11:07:27;11.48;;;6.72;;
37087;SDS011;23002;52.676;6.432;2024-01-06T11:10:05;11.73;;;6.47;;
37087;SDS011;23002;52.676;6.432;2024-01-06T11:12:38;8.85;;;5.10;;
37087;SDS011;23002;52.676;6.432;2024-01-06T11:15:05;11.15;;;5.15;;
37087;SDS011;23002;52.676;6.432;2024-01-06T11:20:22;9.50;;;5.18;;
37087;SDS011;23002;52.676;6.432;2024-01-06T11:22:50;11.65;;;5.75;;
37087;SDS011;23002;52.676;6.432;2024-01-06T11:25:18;9.52;;;5.72;;
37087;SDS011;23002;52.676;6.432;2024-01-06T11:27:46;10.23;;;6.10;;
37087;SDS011;23002;52.676;6.432;2024-01-06T11:30:27;9.13;;;5.53;;
37087;SDS011;23002;52.676;6.432;2024-01-06T11:32:56;9.20;;;5.20;;
37087;SDS011;23002;52.676;6.432;2024-01-06T11:35:25;12.07;;;6.20;;
37087;SDS011;23002;52.676;6.432;2024-01-06T11:37:55;10.98;;;5.55;;
37087;SDS011;23002;52.676;6.432;2024-01-06T11:40:24;13.30;;;6.50;;
37087;SDS011;23002;52.676;6.432;2024-01-06T11:45:25;11.32;;;6.10;;
37087;SDS011;23002;52.676;6.432;2024-01-06T11:47:54;10.52;;;6.53;;
37087;SDS011;23002;52.676;6.432;2024-01-06T11:50:23;11.48;;;5.93;;
37087;SDS011;23002;52.676;6.432;2024-01-06T11:52:50;13.32;;;6.53;;
37087;SDS011;23002;52.676;6.432;2024-01-06T11:55:17;12.15;;;6.82;;
37087;SDS011;23002;52.676;6.432;2024-01-06T11:57:45;12.55;;;6.28;;
37087;SDS011;23002;52.676;6.432;2024-01-06T12:00:13;11.45;;;6.03;;
37087;SDS011;23002;52.676;6.432;2024-01-06T12:02:41;10.70;;;6.20;;
37087;SDS011;23002;52.676;6.432;2024-01-06T12:05:17;12.30;;;5.55;;
37087;SDS011;23002;52.676;6.432;2024-01-06T12:07:54;11.02;;;5.50;;
37087;SDS011;23002;52.676;6.432;2024-01-06T12:10:21;10.55;;;6.00;;
37087;SDS011;23002;52.676;6.432;2024-01-06T12:15:22;12.77;;;6.43;;
37087;SDS011;23002;52.676;6.432;2024-01-06T12:17:50;10.57;;;6.68;;
37087;SDS011;23002;52.676;6.432;2024-01-06T12:20:17;11.10;;;7.03;;
37087;SDS011;23002;52.676;6.432;2024-01-06T12:22:44;8.75;;;5.28;;
37087;SDS011;23002;52.676;6.432;2024-01-06T12:25:11;12.65;;;6.70;;
37087;SDS011;23002;52.676;6.432;2024-01-06T12:27:42;11.90;;;6.25;;
37087;SDS011;23002;52.676;6.432;2024-01-06T12:30:16;11.95;;;6.45;;
37087;SDS011;23002;52.676;6.432;2024-01-06T12:32:46;13.07;;;6.00;;
37087;SDS011;23002;52.676;6.432;2024-01-06T12:35:16;11.32;;;6.47;;
37087;SDS011;23002;52.676;6.432;2024-01-06T12:37:43;12.20;;;6.32;;
37087;SDS011;23002;52.676;6.432;2024-01-06T12:40:11;13.10;;;6.97;;
37087;SDS011;23002;52.676;6.432;2024-01-06T12:42:39;12.82;;;6.80;;
37087;SDS011;23002;52.676;6.432;2024-01-06T12:45:06;11.80;;;7.28;;
37087;SDS011;23002;52.676;6.432;2024-01-06T12:47:33;11.55;;;6.03;;
37087;SDS011;23002;52.676;6.432;2024-01-06T12:50:00;9.85;;;5.93;;
37087;SDS011;23002;52.676;6.432;2024-01-06T12:52:27;12.65;;;7.55;;
37087;SDS011;23002;52.676;6.432;2024-01-06T12:54:54;13.60;;;7.57;;
37087;SDS011;23002;52.676;6.432;2024-01-06T12:57:21;14.80;;;7.65;;
37087;SDS011;23002;52.676;6.432;2024-01-06T12:59:48;12.65;;;6.60;;
37087;SDS011;23002;52.676;6.432;2024-01-06T13:02:15;14.05;;;7.63;;
37087;SDS011;23002;52.676;6.432;2024-01-06T13:04:41;13.65;;;6.60;;
37087;SDS011;23002;52.676;6.432;2024-01-06T13:07:09;14.35;;;7.20;;
37087;SDS011;23002;52.676;6.432;2024-01-06T13:09:36;12.30;;;6.57;;
37087;SDS011;23002;52.676;6.432;2024-01-06T13:12:03;12.48;;;7.00;;
37087;SDS011;23002;52.676;6.432;2024-01-06T13:14:31;15.35;;;7.13;;
37087;SDS011;23002;52.676;6.432;2024-01-06T13:16:58;12.52;;;6.93;;
37087;SDS011;23002;52.676;6.432;2024-01-06T13:19:25;13.60;;;7.53;;
37087;SDS011;23002;52.676;6.432;2024-01-06T13:21:52;11.63;;;6.72;;
37087;SDS011;23002;52.676;6.432;2024-01-06T13:24:19;12.63;;;6.68;;
37087;SDS011;23002;52.676;6.432;2024-01-06T13:26:48;15.18;;;7.47;;
37087;SDS011;23002;52.676;6.432;2024-01-06T13:29:14;13.45;;;7.57;;
37087;SDS011;23002;52.676;6.432;2024-01-06T13:31:41;12.88;;;7.20;;
37087;SDS011;23002;52.676;6.432;2024-01-06T13:34:08;12.48;;;6.95;;
37087;SDS011;23002;52.676;6.432;2024-01-06T13:36:35;13.77;;;7.40;;
37087;SDS011;23002;52.676;6.432;2024-01-06T13:39:02;15.10;;;8.35;;
37087;SDS011;23002;52.676;6.432;2024-01-06T13:41:30;13.88;;;7.20;;
37087;SDS011;23002;52.676;6.432;2024-01-06T13:43:57;14.70;;;8.07;;
37087;SDS011;23002;52.676;6.432;2024-01-06T13:46:24;13.32;;;7.85;;
37087;SDS011;23002;52.676;6.432;2024-01-06T13:48:51;14.70;;;7.72;;
37087;SDS011;23002;52.676;6.432;2024-01-06T13:51:18;14.10;;;7.30;;
37087;SDS011;23002;52.676;6.432;2024-01-06T13:53:45;14.00;;;7.20;;
37087;SDS011;23002;52.676;6.432;2024-01-06T13:56:11;13.43;;;7.30;;
37087;SDS011;23002;52.676;6.432;2024-01-06T13:58:38;14.60;;;8.13;;
37087;SDS011;23002;52.676;6.432;2024-01-06T14:01:05;16.30;;;8.23;;
37087;SDS011;23002;52.676;6.432;2024-01-06T14:03:32;13.18;;;7.45;;
37087;SDS011;23002;52.676;6.432;2024-01-06T14:05:59;13.65;;;7.32;;
37087;SDS011;23002;52.676;6.432;2024-01-06T14:08:26;15.23;;;7.68;;
37087;SDS011;23002;52.676;6.432;2024-01-06T14:10:53;15.43;;;8.50;;
37087;SDS011;23002;52.676;6.432;2024-01-06T14:13:19;16.00;;;8.60;;
37087;SDS011;23002;52.676;6.432;2024-01-06T14:15:46;12.88;;;7.30;;
37087;SDS011;23002;52.676;6.432;2024-01-06T14:18:13;13.20;;;7.97;;
37087;SDS011;23002;52.676;6.432;2024-01-06T14:20:42;15.73;;;8.50;;
37087;SDS011;23002;52.676;6.432;2024-01-06T14:23:12;15.82;;;8.30;;
37087;SDS011;23002;52.676;6.432;2024-01-06T14:25:39;15.85;;;8.57;;
37087;SDS011;23002;52.676;6.432;2024-01-06T14:28:06;19.23;;;9.07;;
37087;SDS011;23002;52.676;6.432;2024-01-06T14:30:32;16.08;;;8.98;;
37087;SDS011;23002;52.676;6.432;2024-01-06T14:32:59;17.83;;;8.15;;
37087;SDS011;23002;52.676;6.432;2024-01-06T14:35:26;18.27;;;8.75;;
37087;SDS011;23002;52.676;6.432;2024-01-06T14:37:53;17.60;;;8.27;;
37087;SDS011;23002;52.676;6.432;2024-01-06T14:40:20;15.05;;;8.85;;
37087;SDS011;23002;52.676;6.432;2024-01-06T14:42:47;18.23;;;9.13;;
37087;SDS011;23002;52.676;6.432;2024-01-06T14:45:14;16.85;;;8.52;;